Bayshore Gardens, Florida
Current Conditions -  °F | °C
As of 6:53 AM on Sunday 21 Dec 2014 (Local Time) from KSRQ Reporting Station
Broken Clouds Broken Clouds  
Wind Chill: 61°   Ceiling: 8500
Heat Index: 61°   Visibility: 10mi
Dew Point: 60°   Wind: 6mph
Humidity: 97%   Direction: 110°ESE
Pressure: 30.05"   Gusts: NA
Location:  27.4402°N, 82.5786°W
Report Text: KSRQ 211153Z 11005KT 10SM BKN085 16/16 A3005 RMK AO2 SLP175 T01610156 10178 20150 53004
Loading
Personal Weather Stations






























Interactive Weather Map New forecast layout! Learn more

10-Day Weather Forecast

Advertisements
Track Severe Weather on mobile